Time;durP1;ratioP1;P1;durP2;ratioP2;P2;SDS_P1;SDS_P2;PMS_P1;PMS_P2;Temp;Humidity;BMP_temperature;BMP_pressure;BME280_temperature;BME280_humidity;BME280_pressure;Samples;Min_cycle;Max_cycle;Signal;HPM_P1;HPM_P2
2021/08/21 00:01:05;;;;;;;28.55;11.95;;;;;;;;;;5070358;28;20525;-60
2021/08/21 00:03:31;;;;;;;23.45;11.60;;;;;;;;;;5070257;28;20564;-60
2021/08/21 00:05:57;;;;;;;27.95;10.90;;;;;;;;;;5072147;28;20064;-59
2021/08/21 00:08:24;;;;;;;32.25;12.30;;;;;;;;;;5070656;28;20075;-59
2021/08/21 00:10:50;;;;;;;21.40;10.35;;;;;;;;;;5070008;28;20056;-60
2021/08/21 00:13:16;;;;;;;30.50;11.63;;;;;;;;;;5070254;28;20051;-60
2021/08/21 00:15:43;;;;;;;27.70;10.57;;;;;;;;;;5070198;28;20124;-60
2021/08/21 00:18:09;;;;;;;25.80;10.55;;;;;;;;;;5072291;28;20056;-59
2021/08/21 00:20:36;;;;;;;22.13;9.95;;;;;;;;;;5068814;28;20052;-60
2021/08/21 00:23:02;;;;;;;26.55;11.63;;;;;;;;;;5070169;28;20076;-59
2021/08/21 00:25:28;;;;;;;24.38;10.50;;;;;;;;;;5068648;28;20040;-60
2021/08/21 00:27:55;;;;;;;21.23;10.55;;;;;;;;;;5068812;28;20033;-60
2021/08/21 00:30:21;;;;;;;22.10;10.52;;;;;;;;;;5069592;28;20108;-59
2021/08/21 00:32:51;;;;;;;24.92;10.30;;;;;;;;;;5099434;28;20055;-60
2021/08/21 00:35:18;;;;;;;23.80;11.25;;;;;;;;;;5067476;28;20091;-60
2021/08/21 00:37:44;;;;;;;25.20;10.40;;;;;;;;;;5070311;28;20064;-60
2021/08/21 00:40:11;;;;;;;20.52;10.02;;;;;;;;;;5068812;28;20044;-59
2021/08/21 00:42:37;;;;;;;21.10;10.10;;;;;;;;;;5069846;28;20101;-60
2021/08/21 00:45:07;;;;;;;21.52;11.35;;;;;;;;;;5071730;28;20102;-60
2021/08/21 00:47:34;;;;;;;22.63;9.98;;;;;;;;;;5068667;28;20048;-60
2021/08/21 00:50:01;;;;;;;18.40;10.20;;;;;;;;;;5068461;28;20041;-60
2021/08/21 00:52:29;;;;;;;22.88;10.15;;;;;;;;;;5070405;28;20087;-59
2021/08/21 00:54:56;;;;;;;23.88;9.68;;;;;;;;;;5070857;28;20075;-60
2021/08/21 00:57:23;;;;;;;16.98;9.50;;;;;;;;;;5069823;28;20520;-60
2021/08/21 00:59:53;;;;;;;23.60;10.55;;;;;;;;;;5073127;28;20546;-60
2021/08/21 01:02:20;;;;;;;20.38;10.93;;;;;;;;;;5072736;28;20036;-60
2021/08/21 01:04:51;;;;;;;24.85;10.80;;;;;;;;;;5072689;28;20404;-60
2021/08/21 01:07:21;;;;;;;23.42;10.00;;;;;;;;;;5068721;28;20102;-60
2021/08/21 01:09:47;;;;;;;21.23;11.23;;;;;;;;;;5073790;28;20513;-60
2021/08/21 01:12:15;;;;;;;23.98;11.50;;;;;;;;;;5074424;28;20561;-60
2021/08/21 01:14:42;;;;;;;23.50;11.60;;;;;;;;;;5105667;28;20064;-60
2021/08/21 01:17:08;;;;;;;21.83;11.07;;;;;;;;;;5072514;28;20045;-60
2021/08/21 01:19:40;;;;;;;24.88;11.15;;;;;;;;;;5072659;28;20488;-60
2021/08/21 01:22:14;;;;;;;24.85;11.07;;;;;;;;;;5072624;28;20071;-59
2021/08/21 01:24:41;;;;;;;23.90;11.40;;;;;;;;;;5055623;28;20507;-61
2021/08/21 01:27:14;;;;;;;25.10;11.60;;;;;;;;;;5075663;28;20504;-60
2021/08/21 01:29:55;;;;;;;23.42;11.90;;;;;;;;;;5072447;28;20052;-60
2021/08/21 01:32:38;;;;;;;24.38;11.68;;;;;;;;;;5067061;28;20456;-60
2021/08/21 01:35:05;;;;;;;21.38;10.70;;;;;;;;;;5066308;28;20048;-60
2021/08/21 01:37:31;;;;;;;25.00;11.90;;;;;;;;;;5068488;28;20068;-60
2021/08/21 01:40:33;;;;;;;21.25;10.60;;;;;;;;;;5064899;28;20080;-60
2021/08/21 01:43:04;;;;;;;21.85;11.30;;;;;;;;;;5070976;28;20079;-60
2021/08/21 01:45:38;;;;;;;;;;;;;;;;;;5071356;28;20072;-59
2021/08/21 01:48:06;;;;;;;20.98;11.05;;;;;;;;;;5107556;28;19920;-59
2021/08/21 01:50:37;;;;;;;26.02;12.52;;;;;;;;;;5070944;28;20131;-60
2021/08/21 01:53:04;;;;;;;28.27;11.30;;;;;;;;;;5071985;28;20091;-60
2021/08/21 01:55:34;;;;;;;26.85;11.68;;;;;;;;;;5072042;28;20048;-60
2021/08/21 01:58:06;;;;;;;27.65;13.25;;;;;;;;;;5071976;28;20071;-60
2021/08/21 02:00:59;;;;;;;24.83;13.35;;;;;;;;;;5013842;28;20057;-60
2021/08/21 02:03:30;;;;;;;26.98;12.23;;;;;;;;;;4997639;28;20082;-60
2021/08/21 02:05:56;;;;;;;28.15;14.05;;;;;;;;;;5012897;28;20052;-60
2021/08/21 02:08:23;;;;;;;34.20;14.23;;;;;;;;;;5013780;28;20128;-60
2021/08/21 02:10:50;;;;;;;44.05;16.45;;;;;;;;;;5029557;28;20057;-60
2021/08/21 02:13:16;;;;;;;36.88;15.10;;;;;;;;;;5013287;28;20129;-60
2021/08/21 02:15:43;;;;;;;36.25;14.25;;;;;;;;;;5030128;28;20184;-60
2021/08/21 02:18:11;;;;;;;31.98;15.57;;;;;;;;;;4996380;28;20572;-60
2021/08/21 02:20:40;;;;;;;38.97;16.17;;;;;;;;;;5013178;28;20050;-60
2021/08/21 02:23:12;;;;;;;43.30;15.35;;;;;;;;;;4997062;28;20128;-59
2021/08/21 02:25:40;;;;;;;54.05;16.88;;;;;;;;;;4997240;28;20426;-60
2021/08/21 02:28:09;;;;;;;49.63;16.75;;;;;;;;;;4996881;28;20048;-60
2021/08/21 02:30:36;;;;;;;40.20;15.00;;;;;;;;;;4996975;28;20092;-59
2021/08/21 02:33:03;;;;;;;46.53;15.50;;;;;;;;;;5012672;28;20058;-60
2021/08/21 02:35:29;;;;;;;63.58;17.85;;;;;;;;;;5029724;28;20050;-60
2021/08/21 02:37:56;;;;;;;46.38;16.10;;;;;;;;;;5071372;28;20072;-60
2021/08/21 02:40:22;;;;;;;57.35;16.58;;;;;;;;;;5072115;28;20112;-60
2021/08/21 02:42:51;;;;;;;60.65;16.52;;;;;;;;;;5070874;28;20063;-60
2021/08/21 02:45:18;;;;;;;40.63;16.88;;;;;;;;;;5073533;28;20052;-60
2021/08/21 02:47:44;;;;;;;42.38;17.02;;;;;;;;;;5088651;28;20511;-60
2021/08/21 02:50:11;;;;;;;39.15;17.15;;;;;;;;;;5072132;28;20082;-60
2021/08/21 02:52:37;;;;;;;47.00;17.08;;;;;;;;;;5071957;28;20044;-60
2021/08/21 02:55:04;;;;;;;45.20;17.42;;;;;;;;;;5070943;28;20051;-59
2021/08/21 02:57:33;;;;;;;50.92;17.17;;;;;;;;;;5070459;28;20120;-60
2021/08/21 03:00:00;;;;;;;45.70;17.38;;;;;;;;;;5073695;28;20080;-60
2021/08/21 03:02:37;;;;;;;47.72;16.05;;;;;;;;;;5069474;28;20044;-60
2021/08/21 03:05:04;;;;;;;39.65;17.00;;;;;;;;;;5069116;28;20082;-60
2021/08/21 03:07:31;;;;;;;46.80;18.50;;;;;;;;;;5053820;28;20052;-60
2021/08/21 03:10:00;;;;;;;46.50;17.88;;;;;;;;;;5070364;28;20113;-60
2021/08/21 03:12:39;;;;;;;45.20;15.75;;;;;;;;;;5054312;28;20055;-60
2021/08/21 03:15:06;;;;;;;51.30;18.10;;;;;;;;;;5071875;28;20051;-60
2021/08/21 03:17:32;;;;;;;52.92;18.45;;;;;;;;;;5069702;28;20097;-60
2021/08/21 03:19:59;;;;;;;44.15;16.90;;;;;;;;;;5071306;28;20122;-60
2021/08/21 03:22:28;;;;;;;57.85;17.40;;;;;;;;;;5068760;28;20488;-61
2021/08/21 03:24:55;;;;;;;55.40;18.38;;;;;;;;;;5053114;28;20119;-60
2021/08/21 03:27:22;;;;;;;49.42;18.70;;;;;;;;;;5070049;28;20119;-60
2021/08/21 03:29:49;;;;;;;53.75;18.92;;;;;;;;;;5103062;28;20106;-60
2021/08/21 03:32:16;;;;;;;56.47;19.58;;;;;;;;;;5065960;28;20537;-60
2021/08/21 03:34:45;;;;;;;53.13;18.73;;;;;;;;;;5069166;28;20119;-60
2021/08/21 03:37:12;;;;;;;48.80;19.90;;;;;;;;;;5071235;28;20558;-60
2021/08/21 03:39:42;;;;;;;48.53;19.98;;;;;;;;;;5052870;28;20107;-60
2021/08/21 03:42:12;;;;;;;52.92;19.25;;;;;;;;;;5071626;28;20083;-60
2021/08/21 03:44:40;;;;;;;51.78;20.42;;;;;;;;;;5085962;28;20075;-60
2021/08/21 03:47:08;;;;;;;54.05;19.67;;;;;;;;;;5067995;28;20119;-60
2021/08/21 03:49:34;;;;;;;50.00;18.88;;;;;;;;;;5069861;28;20523;-60
2021/08/21 03:52:01;;;;;;;46.25;20.08;;;;;;;;;;5069971;28;20399;-60
2021/08/21 03:54:32;;;;;;;43.20;19.42;;;;;;;;;;5069622;28;20064;-60
2021/08/21 03:56:59;;;;;;;49.47;20.00;;;;;;;;;;5071760;28;20075;-60
2021/08/21 03:59:27;;;;;;;52.10;19.17;;;;;;;;;;5069596;28;20059;-60
2021/08/21 04:01:55;;;;;;;51.42;20.02;;;;;;;;;;5069664;28;20048;-60
2021/08/21 04:04:27;;;;;;;53.33;19.75;;;;;;;;;;5069825;28;20075;-60
2021/08/21 04:06:54;;;;;;;53.38;19.50;;;;;;;;;;5069639;28;20056;-60
2021/08/21 04:09:25;;;;;;;44.22;18.33;;;;;;;;;;5069552;28;20385;-59
2021/08/21 04:11:57;;;;;;;52.40;19.85;;;;;;;;;;5089391;28;20100;-60
2021/08/21 04:14:24;;;;;;;40.50;17.25;;;;;;;;;;5066542;28;20049;-60
2021/08/21 04:16:51;;;;;;;38.80;17.50;;;;;;;;;;5069495;28;20115;-60
2021/08/21 04:19:20;;;;;;;48.92;18.45;;;;;;;;;;5067969;28;20385;-60
2021/08/21 04:21:47;;;;;;;37.75;17.55;;;;;;;;;;5069275;28;20052;-60
2021/08/21 04:24:31;;;;;;;42.30;17.63;;;;;;;;;;5069444;28;20501;-60
2021/08/21 04:27:02;;;;;;;37.35;17.17;;;;;;;;;;5071464;28;20044;-60
2021/08/21 04:29:31;;;;;;;34.05;16.63;;;;;;;;;;5069397;28;20565;-60
2021/08/21 04:31:57;;;;;;;37.10;15.70;;;;;;;;;;5069394;28;20182;-60
2021/08/21 04:34:24;;;;;;;38.85;17.35;;;;;;;;;;5071720;28;20052;-60
2021/08/21 04:36:50;;;;;;;40.53;17.95;;;;;;;;;;5073616;28;20110;-60
2021/08/21 04:39:21;;;;;;;39.20;16.77;;;;;;;;;;5074082;28;20076;-60
2021/08/21 04:41:50;;;;;;;38.15;17.05;;;;;;;;;;5070106;28;20078;-60
2021/08/21 04:44:17;;;;;;;37.53;17.13;;;;;;;;;;5101805;28;20491;-60
2021/08/21 04:46:44;;;;;;;38.45;16.67;;;;;;;;;;5065606;28;20064;-60
2021/08/21 04:49:11;;;;;;;39.20;17.23;;;;;;;;;;5073265;28;20041;-60
2021/08/21 04:51:37;;;;;;;33.20;16.65;;;;;;;;;;5073159;28;20040;-60
2021/08/21 04:54:08;;;;;;;37.22;16.50;;;;;;;;;;5070592;28;20076;-60
2021/08/21 04:56:34;;;;;;;35.05;16.48;;;;;;;;;;5072954;28;20484;-60
2021/08/21 04:59:27;;;;;;;37.90;16.25;;;;;;;;;;5071465;28;20450;-60
2021/08/21 05:02:00;;;;;;;40.70;17.40;;;;;;;;;;5071407;28;20044;-60
2021/08/21 05:04:26;;;;;;;36.45;16.88;;;;;;;;;;5073110;28;20129;-60
2021/08/21 05:06:53;;;;;;;33.17;16.80;;;;;;;;;;5072797;28;20086;-60
2021/08/21 05:09:20;;;;;;;32.95;15.15;;;;;;;;;;5073815;28;20427;-60
2021/08/21 05:11:51;;;;;;;34.55;16.60;;;;;;;;;;5108209;28;20053;-60
2021/08/21 05:14:18;;;;;;;34.25;15.38;;;;;;;;;;5071046;28;20483;-60
2021/08/21 05:16:46;;;;;;;32.58;15.40;;;;;;;;;;5072552;28;20495;-60
2021/08/21 05:19:48;;;;;;;32.00;15.57;;;;;;;;;;5045221;28;20116;-60
2021/08/21 05:22:25;;;;;;;37.08;17.85;;;;;;;;;;5017363;28;20045;-60
2021/08/21 05:24:53;;;;;;;34.47;16.98;;;;;;;;;;5048842;28;20516;-60
2021/08/21 05:27:20;;;;;;;29.55;13.95;;;;;;;;;;5032867;28;20045;-60
2021/08/21 05:29:46;;;;;;;31.90;15.93;;;;;;;;;;5031970;28;20062;-60
2021/08/21 05:32:13;;;;;;;30.20;14.65;;;;;;;;;;5010975;28;20080;-60
2021/08/21 05:34:39;;;;;;;31.52;15.13;;;;;;;;;;5014927;28;20050;-60
2021/08/21 05:37:06;;;;;;;25.90;12.00;;;;;;;;;;5031388;28;20583;-60
2021/08/21 05:39:32;;;;;;;32.08;14.02;;;;;;;;;;5031333;28;20058;-61
2021/08/21 05:42:01;;;;;;;28.25;14.35;;;;;;;;;;5032395;28;20132;-61
2021/08/21 05:44:28;;;;;;;30.38;14.77;;;;;;;;;;5031163;28;20547;-61
2021/08/21 05:46:54;;;;;;;30.75;14.25;;;;;;;;;;5030600;28;20080;-61
2021/08/21 05:49:20;;;;;;;30.33;13.25;;;;;;;;;;5030357;28;20049;-61
2021/08/21 05:51:47;;;;;;;30.13;13.93;;;;;;;;;;5031029;28;20046;-61
2021/08/21 05:54:13;;;;;;;33.05;15.10;;;;;;;;;;5015039;28;20084;-61
2021/08/21 05:56:40;;;;;;;25.75;12.60;;;;;;;;;;5055061;28;20074;-61
2021/08/21 05:59:06;;;;;;;28.55;14.73;;;;;;;;;;5066994;28;20062;-59
2021/08/21 06:01:32;;;;;;;24.90;13.15;;;;;;;;;;5061692;28;20114;-59
2021/08/21 06:03:59;;;;;;;29.30;14.13;;;;;;;;;;5070049;28;20049;-60
2021/08/21 06:06:26;;;;;;;28.05;14.25;;;;;;;;;;5068002;28;20094;-61
2021/08/21 06:08:53;;;;;;;26.58;13.05;;;;;;;;;;5080703;28;20061;-60
2021/08/21 06:11:20;;;;;;;32.30;13.57;;;;;;;;;;5057056;28;20504;-61
2021/08/21 06:13:46;;;;;;;24.98;12.63;;;;;;;;;;5060688;28;20047;-61
2021/08/21 06:16:13;;;;;;;23.27;12.35;;;;;;;;;;5055556;28;20083;-61
2021/08/21 06:18:39;;;;;;;36.00;13.65;;;;;;;;;;5052181;28;20110;-61
2021/08/21 06:21:05;;;;;;;25.73;12.43;;;;;;;;;;5071317;28;20045;-61
2021/08/21 06:23:32;;;;;;;24.27;12.13;;;;;;;;;;5057288;28;20499;-61
2021/08/21 06:25:58;;;;;;;25.02;13.05;;;;;;;;;;5058721;28;20044;-61
2021/08/21 06:28:24;;;;;;;25.05;12.25;;;;;;;;;;5058097;28;20095;-61
2021/08/21 06:30:51;;;;;;;19.95;12.00;;;;;;;;;;5055101;28;20071;-61
2021/08/21 06:33:17;;;;;;;22.92;12.05;;;;;;;;;;5056862;28;20052;-61
2021/08/21 06:35:43;;;;;;;21.73;11.93;;;;;;;;;;5058882;28;20083;-61
2021/08/21 06:38:10;;;;;;;21.30;11.95;;;;;;;;;;5058694;28;20049;-61
2021/08/21 06:40:36;;;;;;;21.40;11.75;;;;;;;;;;5058697;28;20041;-61
2021/08/21 06:43:02;;;;;;;23.48;13.45;;;;;;;;;;5057313;28;20079;-61
2021/08/21 06:45:33;;;;;;;21.75;12.75;;;;;;;;;;5055272;28;20514;-62
2021/08/21 06:48:00;;;;;;;24.13;11.75;;;;;;;;;;5072192;28;20412;-62
2021/08/21 06:50:26;;;;;;;20.05;10.45;;;;;;;;;;5071806;28;20487;-61
2021/08/21 06:52:52;;;;;;;19.40;10.98;;;;;;;;;;5071400;28;20502;-61
2021/08/21 06:55:19;;;;;;;19.02;10.05;;;;;;;;;;5070119;28;20411;-62
2021/08/21 06:57:45;;;;;;;15.70;10.23;;;;;;;;;;5069825;28;20492;-62
2021/08/21 07:00:12;;;;;;;18.17;9.00;;;;;;;;;;5073298;28;20103;-62
2021/08/21 07:02:38;;;;;;;16.15;9.18;;;;;;;;;;5071786;28;20127;-62
2021/08/21 07:05:05;;;;;;;14.50;9.00;;;;;;;;;;5070145;28;20398;-62
2021/08/21 07:07:31;;;;;;;14.73;8.88;;;;;;;;;;5069855;28;20458;-62
2021/08/21 07:09:57;;;;;;;18.17;9.38;;;;;;;;;;5071020;28;20044;-62
2021/08/21 07:12:24;;;;;;;15.80;8.85;;;;;;;;;;5071665;28;20044;-61
2021/08/21 07:14:50;;;;;;;14.63;8.90;;;;;;;;;;5072489;28;20088;-62
2021/08/21 07:17:18;;;;;;;19.75;9.02;;;;;;;;;;5070835;28;20045;-62
2021/08/21 07:19:44;;;;;;;14.93;9.20;;;;;;;;;;5071112;28;20044;-62
2021/08/21 07:22:10;;;;;;;19.58;8.60;;;;;;;;;;5070938;28;20530;-63
2021/08/21 07:24:37;;;;;;;14.45;8.23;;;;;;;;;;5063417;28;20488;-63
2021/08/21 07:27:03;;;;;;;17.27;9.00;;;;;;;;;;5071602;28;20139;-62
2021/08/21 07:29:30;;;;;;;15.77;8.50;;;;;;;;;;5070168;28;20133;-63
2021/08/21 07:31:56;;;;;;;14.93;7.43;;;;;;;;;;5068831;28;20036;-62
2021/08/21 07:34:23;;;;;;;15.05;8.45;;;;;;;;;;5070688;28;20044;-63
2021/08/21 07:36:49;;;;;;;13.07;8.02;;;;;;;;;;5070626;28;20118;-62
2021/08/21 07:39:15;;;;;;;14.93;7.43;;;;;;;;;;5071805;28;20412;-62
2021/08/21 07:41:42;;;;;;;18.40;8.68;;;;;;;;;;5070619;28;20502;-62
2021/08/21 07:44:08;;;;;;;16.15;8.55;;;;;;;;;;5067475;28;20064;-59
2021/08/21 07:46:34;;;;;;;13.65;7.90;;;;;;;;;;5070697;28;20053;-62
2021/08/21 07:49:01;;;;;;;10.85;7.45;;;;;;;;;;5068889;28;20111;-63
2021/08/21 07:51:27;;;;;;;10.48;6.10;;;;;;;;;;5070546;28;20048;-63
2021/08/21 07:53:53;;;;;;;8.98;5.90;;;;;;;;;;5070586;28;20074;-62
2021/08/21 07:56:20;;;;;;;11.70;6.57;;;;;;;;;;5070248;28;20049;-62
2021/08/21 07:58:46;;;;;;;10.82;6.50;;;;;;;;;;5069380;28;20079;-61
2021/08/21 08:01:13;;;;;;;13.05;7.45;;;;;;;;;;5069256;28;20055;-62
2021/08/21 08:03:39;;;;;;;9.93;6.80;;;;;;;;;;5070767;28;20122;-62
2021/08/21 08:06:05;;;;;;;11.30;6.88;;;;;;;;;;5071000;28;20060;-61
2021/08/21 08:08:32;;;;;;;11.77;6.95;;;;;;;;;;5068737;28;20052;-60
2021/08/21 08:10:58;;;;;;;11.23;5.93;;;;;;;;;;5068414;28;20060;-61
2021/08/21 08:13:24;;;;;;;10.55;6.07;;;;;;;;;;5069402;28;20071;-60
2021/08/21 08:15:51;;;;;;;9.38;5.53;;;;;;;;;;5068485;28;20087;-61
2021/08/21 08:18:17;;;;;;;9.00;5.32;;;;;;;;;;5052141;28;20056;-61
2021/08/21 08:20:44;;;;;;;12.65;5.80;;;;;;;;;;5067538;28;20056;-60
2021/08/21 08:23:11;;;;;;;11.90;6.47;;;;;;;;;;5065978;28;20041;-59
2021/08/21 08:25:38;;;;;;;7.60;4.95;;;;;;;;;;5068115;28;20048;-60
2021/08/21 08:28:05;;;;;;;10.40;6.40;;;;;;;;;;5069607;28;20083;-60
2021/08/21 08:30:31;;;;;;;9.07;5.43;;;;;;;;;;5069694;28;20044;-60
2021/08/21 08:32:57;;;;;;;6.97;4.65;;;;;;;;;;5071498;28;20119;-59
2021/08/21 08:35:24;;;;;;;7.00;4.60;;;;;;;;;;5068993;28;20075;-60
2021/08/21 08:37:50;;;;;;;11.27;5.68;;;;;;;;;;5069049;28;20041;-60
2021/08/21 08:40:17;;;;;;;7.88;5.10;;;;;;;;;;5068240;28;20131;-61
2021/08/21 08:42:44;;;;;;;8.02;5.63;;;;;;;;;;5068427;28;20072;-59
2021/08/21 08:45:12;;;;;;;9.57;6.10;;;;;;;;;;5070079;28;20045;-61
2021/08/21 08:47:38;;;;;;;9.63;5.55;;;;;;;;;;5068917;28;20047;-59
2021/08/21 08:50:06;;;;;;;8.43;5.63;;;;;;;;;;5068223;28;20094;-60
2021/08/21 08:52:33;;;;;;;9.65;5.95;;;;;;;;;;5068298;28;20059;-62
2021/08/21 08:54:59;;;;;;;7.97;5.03;;;;;;;;;;5069070;28;20450;-60
2021/08/21 08:57:35;;;;;;;7.88;5.20;;;;;;;;;;5068977;28;20470;-59
2021/08/21 09:00:12;;;;;;;10.38;5.45;;;;;;;;;;5068161;28;20123;-61
2021/08/21 09:02:40;;;;;;;7.60;4.97;;;;;;;;;;5069531;28;20080;-61
2021/08/21 09:05:08;;;;;;;6.97;3.80;;;;;;;;;;5068043;28;20064;-61
2021/08/21 09:07:38;;;;;;;6.95;4.13;;;;;;;;;;5066079;28;20076;-59
2021/08/21 09:10:23;;;;;;;6.63;4.20;;;;;;;;;;5068073;28;20056;-61
2021/08/21 09:12:51;;;;;;;5.60;3.40;;;;;;;;;;5067904;28;20063;-60
2021/08/21 09:15:18;;;;;;;5.95;4.00;;;;;;;;;;5068927;28;20083;-60
2021/08/21 09:17:59;;;;;;;8.68;5.45;;;;;;;;;;5069167;28;20041;-61
2021/08/21 09:20:25;;;;;;;10.65;5.78;;;;;;;;;;5067570;28;20893;-59
2021/08/21 09:22:51;;;;;;;9.65;6.45;;;;;;;;;;5072174;28;20498;-59
2021/08/21 09:25:30;;;;;;;8.15;5.75;;;;;;;;;;5071596;28;20502;-61
2021/08/21 09:27:57;;;;;;;10.98;6.38;;;;;;;;;;5070629;28;20134;-60
2021/08/21 09:30:27;;;;;;;7.38;4.97;;;;;;;;;;5072811;28;20051;-61
2021/08/21 09:33:02;;;;;;;8.77;5.30;;;;;;;;;;5072695;28;20054;-61
2021/08/21 09:35:33;;;;;;;20.00;5.03;;;;;;;;;;5071057;28;20123;-60
2021/08/21 09:38:00;;;;;;;8.20;5.53;;;;;;;;;;5072578;28;20041;-60
2021/08/21 09:40:31;;;;;;;6.80;4.25;;;;;;;;;;5071167;28;20792;-61
2021/08/21 09:42:58;;;;;;;6.15;4.35;;;;;;;;;;5073151;28;20083;-60
2021/08/21 09:45:25;;;;;;;8.65;5.00;;;;;;;;;;5071774;28;20082;-60
2021/08/21 09:48:11;;;;;;;6.50;5.20;;;;;;;;;;5072982;28;20075;-61
2021/08/21 09:50:40;;;;;;;6.55;3.72;;;;;;;;;;5070669;28;20036;-62
2021/08/21 09:53:07;;;;;;;6.22;4.40;;;;;;;;;;5071912;28;20049;-61
2021/08/21 09:55:34;;;;;;;6.22;3.80;;;;;;;;;;5071743;28;20444;-62
2021/08/21 09:58:17;;;;;;;7.70;4.55;;;;;;;;;;5071691;28;20072;-61
2021/08/21 10:00:44;;;;;;;7.03;3.97;;;;;;;;;;5070125;28;20049;-61
2021/08/21 10:03:10;;;;;;;5.93;4.72;;;;;;;;;;5072606;28;20107;-62
2021/08/21 10:05:37;;;;;;;6.45;4.32;;;;;;;;;;5071037;28;20044;-61
2021/08/21 10:08:12;;;;;;;7.22;4.43;;;;;;;;;;5071248;28;20436;-61
2021/08/21 10:10:49;;;;;;;5.03;3.95;;;;;;;;;;5069901;28;20126;-61
2021/08/21 10:13:33;;;;;;;6.70;4.18;;;;;;;;;;5071558;28;20032;-61
2021/08/21 10:16:03;;;;;;;;;;;;;;;;;;5071266;28;20072;-60
2021/08/21 10:18:29;;;;;;;5.93;4.28;;;;;;;;;;5072202;28;19920;-62
2021/08/21 10:20:56;;;;;;;8.05;4.88;;;;;;;;;;5072458;28;20120;-61
2021/08/21 10:23:28;;;;;;;7.88;5.07;;;;;;;;;;5071365;28;20389;-60
2021/08/21 10:26:01;;;;;;;7.15;4.00;;;;;;;;;;5070915;28;20044;-60
2021/08/21 10:28:32;;;;;;;5.82;4.18;;;;;;;;;;5071417;28;20068;-60
2021/08/21 10:30:58;;;;;;;6.75;4.57;;;;;;;;;;5069445;28;20503;-60
2021/08/21 10:33:26;;;;;;;8.57;4.40;;;;;;;;;;5071392;28;20411;-61
2021/08/21 10:35:54;;;;;;;5.32;4.00;;;;;;;;;;5072725;28;20129;-61
2021/08/21 10:38:30;;;;;;;5.78;3.63;;;;;;;;;;5070892;28;20075;-61
2021/08/21 10:40:58;;;;;;;7.88;3.50;;;;;;;;;;5068196;28;20467;-60
2021/08/21 10:43:42;;;;;;;4.55;3.55;;;;;;;;;;5071339;28;20200;-61
2021/08/21 10:46:09;;;;;;;5.00;3.35;;;;;;;;;;5064233;28;20106;-61
2021/08/21 10:48:38;;;;;;;5.43;3.88;;;;;;;;;;5071501;28;20054;-61
2021/08/21 10:51:05;;;;;;;5.25;3.20;;;;;;;;;;5071739;28;20042;-62
2021/08/21 10:53:33;;;;;;;5.60;3.75;;;;;;;;;;5070493;28;20060;-60
2021/08/21 10:56:00;;;;;;;5.85;3.40;;;;;;;;;;5070895;28;20045;-61
2021/08/21 10:58:28;;;;;;;5.43;3.45;;;;;;;;;;5071429;28;20052;-59
2021/08/21 11:00:57;;;;;;;4.90;3.17;;;;;;;;;;5071552;28;20083;-61
2021/08/21 11:03:23;;;;;;;4.82;3.45;;;;;;;;;;5071411;28;20123;-61
2021/08/21 11:06:09;;;;;;;4.70;3.33;;;;;;;;;;5105211;28;20087;-61
2021/08/21 11:08:36;;;;;;;7.30;3.92;;;;;;;;;;5068637;28;20132;-61
2021/08/21 11:11:19;;;;;;;7.50;3.38;;;;;;;;;;5069522;28;20048;-62
2021/08/21 11:14:24;;;;;;;4.43;3.13;;;;;;;;;;5069911;28;20554;-63
2021/08/21 11:16:54;;;;;;;4.95;3.15;;;;;;;;;;5066387;28;20072;-61
2021/08/21 11:19:35;;;;;;;4.13;2.90;;;;;;;;;;5071308;28;20105;-62
2021/08/21 11:22:11;;;;;;;7.45;2.70;;;;;;;;;;5071098;28;20068;-61
2021/08/21 11:24:38;;;;;;;3.55;2.42;;;;;;;;;;5071038;28;20075;-59
2021/08/21 11:27:23;;;;;;;4.82;2.60;;;;;;;;;;5072214;28;20135;-62
2021/08/21 11:30:12;;;;;;;3.50;2.67;;;;;;;;;;5072099;28;20105;-63
2021/08/21 11:32:41;;;;;;;3.70;3.00;;;;;;;;;;5069223;28;20049;-61
2021/08/21 11:35:08;;;;;;;4.25;2.78;;;;;;;;;;5069250;28;20511;-61
2021/08/21 11:37:34;;;;;;;3.42;2.60;;;;;;;;;;5066329;28;20041;-62
2021/08/21 11:40:01;;;;;;;4.40;2.90;;;;;;;;;;5068219;28;20036;-62
2021/08/21 11:42:46;;;;;;;4.18;2.70;;;;;;;;;;5068850;28;20110;-62
2021/08/21 11:45:14;;;;;;;4.90;3.05;;;;;;;;;;5067495;28;20040;-60
2021/08/21 11:47:41;;;;;;;4.22;2.83;;;;;;;;;;5070172;28;20080;-62
2021/08/21 11:50:20;;;;;;;3.55;2.78;;;;;;;;;;5070068;28;20048;-61
2021/08/21 11:52:48;;;;;;;4.80;2.85;;;;;;;;;;5069632;28;20115;-62
2021/08/21 11:55:14;;;;;;;4.40;2.65;;;;;;;;;;5070129;28;20113;-61
2021/08/21 11:57:47;;;;;;;3.70;2.60;;;;;;;;;;5070169;28;20060;-61
2021/08/21 12:00:19;;;;;;;3.00;1.92;;;;;;;;;;5071468;28;20300;-61
2021/08/21 12:02:46;;;;;;;2.70;2.20;;;;;;;;;;5071180;28;20044;-61
2021/08/21 12:05:13;;;;;;;5.78;2.15;;;;;;;;;;5069824;28;20037;-61
2021/08/21 12:07:39;;;;;;;3.75;2.45;;;;;;;;;;5069949;28;20459;-62
2021/08/21 12:10:06;;;;;;;3.72;2.30;;;;;;;;;;5066789;28;20123;-62
2021/08/21 12:12:33;;;;;;;4.00;2.58;;;;;;;;;;5070002;28;20044;-63
2021/08/21 12:15:02;;;;;;;3.13;2.47;;;;;;;;;;5072403;28;20561;-63
2021/08/21 12:17:29;;;;;;;3.40;2.53;;;;;;;;;;5070418;28;20415;-64
2021/08/21 12:19:55;;;;;;;3.40;2.60;;;;;;;;;;5070254;28;20036;-63
2021/08/21 12:22:22;;;;;;;4.75;2.75;;;;;;;;;;5065036;28;20049;-62
2021/08/21 12:24:52;;;;;;;3.08;2.15;;;;;;;;;;5068748;28;20052;-61
2021/08/21 12:27:26;;;;;;;3.67;2.22;;;;;;;;;;5071450;28;20044;-61
2021/08/21 12:29:52;;;;;;;;;;;;;;;;;;5072415;28;20084;-62
2021/08/21 12:32:28;;;;;;;4.22;2.97;;;;;;;;;;5070484;28;19921;-62
2021/08/21 12:35:11;;;;;;;3.53;2.63;;;;;;;;;;5070217;28;20456;-60
2021/08/21 12:37:37;;;;;;;3.45;2.50;;;;;;;;;;5069860;28;20563;-62
2021/08/21 12:40:15;;;;;;;3.45;2.85;;;;;;;;;;5070343;28;20083;-61
2021/08/21 12:42:42;;;;;;;4.32;2.90;;;;;;;;;;5070409;28;20072;-61
2021/08/21 12:45:34;;;;;;;4.28;2.83;;;;;;;;;;5065933;28;20047;-61
2021/08/21 12:48:07;;;;;;;4.25;2.70;;;;;;;;;;5060800;28;20049;-61
2021/08/21 12:50:40;;;;;;;3.53;2.42;;;;;;;;;;5066852;28;20135;-61
2021/08/21 12:53:07;;;;;;;6.53;2.90;;;;;;;;;;5065579;28;20047;-63
2021/08/21 12:55:34;;;;;;;4.05;2.92;;;;;;;;;;5066497;28;20048;-61
2021/08/21 12:58:05;;;;;;;3.83;2.63;;;;;;;;;;5068136;28;20115;-61
2021/08/21 13:00:31;;;;;;;3.20;2.55;;;;;;;;;;5072113;28;20053;-63
2021/08/21 13:02:57;;;;;;;7.40;2.90;;;;;;;;;;5103059;28;20051;-61
2021/08/21 13:05:27;;;;;;;3.35;2.50;;;;;;;;;;5065527;28;20573;-62
2021/08/21 13:07:54;;;;;;;3.80;2.45;;;;;;;;;;5065142;28;20043;-63
2021/08/21 13:10:21;;;;;;;3.47;2.65;;;;;;;;;;5080155;28;20060;-63
2021/08/21 13:12:48;;;;;;;3.80;2.47;;;;;;;;;;5065838;28;20069;-63
2021/08/21 13:15:16;;;;;;;3.42;2.50;;;;;;;;;;5067018;28;20109;-62
2021/08/21 13:17:42;;;;;;;7.70;2.50;;;;;;;;;;5063416;28;20045;-61
2021/08/21 13:20:10;;;;;;;2.90;2.17;;;;;;;;;;5066413;28;20182;-61
2021/08/21 13:22:36;;;;;;;3.97;2.45;;;;;;;;;;5066872;28;20056;-62
2021/08/21 13:25:03;;;;;;;5.10;2.65;;;;;;;;;;5067907;28;20404;-61
2021/08/21 13:27:30;;;;;;;4.93;2.20;;;;;;;;;;5055309;28;20149;-62
2021/08/21 13:29:56;;;;;;;3.30;2.33;;;;;;;;;;5063859;28;20055;-62
2021/08/21 13:32:23;;;;;;;5.47;2.70;;;;;;;;;;5070645;28;20064;-61
2021/08/21 13:34:49;;;;;;;4.50;2.60;;;;;;;;;;5070148;28;20052;-61
2021/08/21 13:37:17;;;;;;;5.35;3.00;;;;;;;;;;5071492;28;20190;-64
2021/08/21 13:39:43;;;;;;;4.15;2.80;;;;;;;;;;5066632;28;20040;-62
2021/08/21 13:42:10;;;;;;;4.97;2.30;;;;;;;;;;5064067;28;20187;-61
2021/08/21 13:44:36;;;;;;;4.53;2.33;;;;;;;;;;5056056;28;20127;-61
2021/08/21 13:47:03;;;;;;;4.68;2.67;;;;;;;;;;5060116;28;20032;-61
2021/08/21 13:49:30;;;;;;;2.80;2.25;;;;;;;;;;5060851;28;20076;-62
2021/08/21 13:51:57;;;;;;;3.40;2.50;;;;;;;;;;5058573;28;20041;-60
2021/08/21 13:54:23;;;;;;;4.65;2.58;;;;;;;;;;5057814;28;20049;-61
2021/08/21 13:56:49;;;;;;;3.80;2.30;;;;;;;;;;5057384;28;20045;-61
2021/08/21 13:59:16;;;;;;;3.97;2.58;;;;;;;;;;5054792;28;20392;-61
2021/08/21 14:01:42;;;;;;;2.63;2.17;;;;;;;;;;5055592;28;20047;-61
2021/08/21 14:04:08;;;;;;;3.80;2.67;;;;;;;;;;5055670;28;20721;-61
2021/08/21 14:06:35;;;;;;;3.30;2.30;;;;;;;;;;5052369;28;20098;-62
2021/08/21 14:09:05;;;;;;;2.72;2.30;;;;;;;;;;5054565;28;20382;-61
2021/08/21 14:11:32;;;;;;;4.32;2.20;;;;;;;;;;5055710;28;20464;-63
2021/08/21 14:13:58;;;;;;;4.57;1.90;;;;;;;;;;5055430;28;20037;-61
2021/08/21 14:16:25;;;;;;;3.15;2.30;;;;;;;;;;5055260;28;20071;-61
2021/08/21 14:18:51;;;;;;;3.15;2.10;;;;;;;;;;5054691;28;20051;-60
2021/08/21 14:21:17;;;;;;;4.25;1.90;;;;;;;;;;5054379;28;20123;-63
2021/08/21 14:23:44;;;;;;;2.70;1.88;;;;;;;;;;5055750;28;20049;-61
2021/08/21 14:26:10;;;;;;;4.82;2.40;;;;;;;;;;5054861;28;20087;-62
2021/08/21 14:28:38;;;;;;;3.40;2.20;;;;;;;;;;5054660;28;20102;-61
2021/08/21 14:31:04;;;;;;;2.90;2.20;;;;;;;;;;5054717;28;20094;-61
2021/08/21 14:33:30;;;;;;;3.85;2.50;;;;;;;;;;5053117;28;20144;-61
2021/08/21 14:35:57;;;;;;;4.20;2.70;;;;;;;;;;5052484;28;20048;-60
2021/08/21 14:38:23;;;;;;;3.42;2.58;;;;;;;;;;5053778;28;20571;-61
2021/08/21 14:40:50;;;;;;;6.38;3.03;;;;;;;;;;5052299;28;20477;-60